Terminal Aerodrome Forecast
Issued by NWS Newport/Morehead City, NC

Home | Current Version | Previous Version | Graphics & Text | Print | Product List | Glossary On
Versions: 1 2 3 4 5 6 7 8 9 10 11 12 13 14 15 16 17
000
FTUS42 KMHX 201100
TAFEWN
TAF
KEWN 201138Z 2012/2112 01003KT 2SM BR BKN005
      TEMPO 2012/2013 1/2SM FG OVC002
     FM201330 02005KT P6SM SCT040
     FM201900 VRB05KT P6SM VCTS BKN040CB
     FM210000 VRB02KT P6SM SCT200
     FM210600 VRB02KT 4SM BR SKC=

USA.gov is the U.S. government's official web portal to all federal, state and local government web resources and services.